sensor_id;sensor_type;location;lat;lon;timestamp;P1;durP1;ratioP1;P2;durP2;ratioP2
48534;SDS011;34323;52.022;5.686;2023-04-08T00:01:01;26.58;;;14.35;;
48534;SDS011;34323;52.022;5.686;2023-04-08T00:03:27;35.72;;;15.13;;
48534;SDS011;34323;52.022;5.686;2023-04-08T00:05:53;39.13;;;15.30;;
48534;SDS011;34323;52.022;5.686;2023-04-08T00:08:18;25.25;;;13.88;;
48534;SDS011;34323;52.022;5.686;2023-04-08T00:10:44;32.00;;;13.43;;
48534;SDS011;34323;52.022;5.686;2023-04-08T00:13:10;30.88;;;13.40;;
48534;SDS011;34323;52.022;5.686;2023-04-08T00:15:35;32.80;;;14.77;;
48534;SDS011;34323;52.022;5.686;2023-04-08T00:18:01;29.95;;;14.70;;
48534;SDS011;34323;52.022;5.686;2023-04-08T00:20:27;29.75;;;14.77;;
48534;SDS011;34323;52.022;5.686;2023-04-08T00:22:53;23.73;;;14.15;;
48534;SDS011;34323;52.022;5.686;2023-04-08T00:25:18;25.10;;;13.20;;
48534;SDS011;34323;52.022;5.686;2023-04-08T00:27:44;23.27;;;13.80;;
48534;SDS011;34323;52.022;5.686;2023-04-08T00:30:10;22.52;;;14.10;;
48534;SDS011;34323;52.022;5.686;2023-04-08T00:32:36;23.63;;;13.02;;
48534;SDS011;34323;52.022;5.686;2023-04-08T00:35:02;20.92;;;12.35;;
48534;SDS011;34323;52.022;5.686;2023-04-08T00:37:28;24.52;;;12.77;;
48534;SDS011;34323;52.022;5.686;2023-04-08T00:39:54;39.63;;;11.73;;
48534;SDS011;34323;52.022;5.686;2023-04-08T00:42:19;19.35;;;12.07;;
48534;SDS011;34323;52.022;5.686;2023-04-08T00:44:46;25.48;;;11.88;;
48534;SDS011;34323;52.022;5.686;2023-04-08T00:47:12;29.65;;;11.68;;
48534;SDS011;34323;52.022;5.686;2023-04-08T00:49:38;16.85;;;10.98;;
48534;SDS011;34323;52.022;5.686;2023-04-08T00:52:04;24.23;;;11.88;;
48534;SDS011;34323;52.022;5.686;2023-04-08T00:54:30;32.63;;;11.68;;
48534;SDS011;34323;52.022;5.686;2023-04-08T00:56:56;18.83;;;10.07;;
48534;SDS011;34323;52.022;5.686;2023-04-08T00:59:24;21.02;;;10.80;;
48534;SDS011;34323;52.022;5.686;2023-04-08T01:01:54;39.60;;;11.27;;
48534;SDS011;34323;52.022;5.686;2023-04-08T01:04:49;60.28;;;11.65;;
48534;SDS011;34323;52.022;5.686;2023-04-08T01:07:25;25.90;;;8.40;;
48534;SDS011;34323;52.022;5.686;2023-04-08T01:09:55;54.80;;;10.45;;
48534;SDS011;34323;52.022;5.686;2023-04-08T01:12:28;18.70;;;10.38;;
48534;SDS011;34323;52.022;5.686;2023-04-08T01:14:56;16.10;;;10.35;;
48534;SDS011;34323;52.022;5.686;2023-04-08T01:17:26;17.88;;;9.82;;
48534;SDS011;34323;52.022;5.686;2023-04-08T01:19:53;24.42;;;10.30;;
48534;SDS011;34323;52.022;5.686;2023-04-08T01:25:11;30.35;;;10.32;;
48534;SDS011;34323;52.022;5.686;2023-04-08T01:27:48;55.20;;;10.18;;
48534;SDS011;34323;52.022;5.686;2023-04-08T01:30:16;33.58;;;9.63;;
48534;SDS011;34323;52.022;5.686;2023-04-08T01:32:44;16.58;;;9.45;;
48534;SDS011;34323;52.022;5.686;2023-04-08T01:35:11;44.85;;;9.98;;
48534;SDS011;34323;52.022;5.686;2023-04-08T01:37:39;27.13;;;9.55;;
48534;SDS011;34323;52.022;5.686;2023-04-08T01:40:06;19.20;;;9.52;;
48534;SDS011;34323;52.022;5.686;2023-04-08T01:42:32;28.77;;;9.80;;
48534;SDS011;34323;52.022;5.686;2023-04-08T01:45:00;13.18;;;8.88;;
48534;SDS011;34323;52.022;5.686;2023-04-08T01:47:27;20.65;;;9.52;;
48534;SDS011;34323;52.022;5.686;2023-04-08T01:49:54;17.50;;;8.73;;
48534;SDS011;34323;52.022;5.686;2023-04-08T01:52:21;18.90;;;8.85;;
48534;SDS011;34323;52.022;5.686;2023-04-08T01:54:47;14.43;;;9.43;;
48534;SDS011;34323;52.022;5.686;2023-04-08T01:57:13;25.17;;;8.90;;
48534;SDS011;34323;52.022;5.686;2023-04-08T01:59:49;20.42;;;9.70;;
48534;SDS011;34323;52.022;5.686;2023-04-08T02:02:16;22.15;;;8.80;;
48534;SDS011;34323;52.022;5.686;2023-04-08T02:04:48;12.95;;;8.45;;
48534;SDS011;34323;52.022;5.686;2023-04-08T02:07:14;30.48;;;8.52;;
48534;SDS011;34323;52.022;5.686;2023-04-08T02:09:40;15.43;;;8.05;;
48534;SDS011;34323;52.022;5.686;2023-04-08T02:12:06;16.23;;;8.73;;
48534;SDS011;34323;52.022;5.686;2023-04-08T02:14:31;12.45;;;8.25;;
48534;SDS011;34323;52.022;5.686;2023-04-08T02:19:51;14.93;;;7.68;;
48534;SDS011;34323;52.022;5.686;2023-04-08T02:25:23;10.43;;;7.15;;
48534;SDS011;34323;52.022;5.686;2023-04-08T02:27:50;11.40;;;7.10;;
48534;SDS011;34323;52.022;5.686;2023-04-08T02:30:18;10.82;;;7.20;;
48534;SDS011;34323;52.022;5.686;2023-04-08T02:32:44;10.60;;;6.72;;
48534;SDS011;34323;52.022;5.686;2023-04-08T02:35:12;11.15;;;6.97;;
48534;SDS011;34323;52.022;5.686;2023-04-08T02:37:39;11.63;;;6.22;;
48534;SDS011;34323;52.022;5.686;2023-04-08T02:40:21;10.25;;;6.70;;
48534;SDS011;34323;52.022;5.686;2023-04-08T02:42:54;14.30;;;7.00;;
48534;SDS011;34323;52.022;5.686;2023-04-08T02:45:20;10.45;;;6.60;;
48534;SDS011;34323;52.022;5.686;2023-04-08T02:47:46;9.73;;;6.45;;
48534;SDS011;34323;52.022;5.686;2023-04-08T02:50:12;10.30;;;7.30;;
48534;SDS011;34323;52.022;5.686;2023-04-08T02:52:38;9.63;;;6.85;;
48534;SDS011;34323;52.022;5.686;2023-04-08T02:55:03;31.08;;;7.30;;
48534;SDS011;34323;52.022;5.686;2023-04-08T02:57:30;11.25;;;6.40;;
48534;SDS011;34323;52.022;5.686;2023-04-08T02:59:56;15.52;;;7.18;;
48534;SDS011;34323;52.022;5.686;2023-04-08T03:02:22;19.60;;;6.43;;
48534;SDS011;34323;52.022;5.686;2023-04-08T03:04:47;11.85;;;7.40;;
48534;SDS011;34323;52.022;5.686;2023-04-08T03:07:13;22.17;;;6.90;;
48534;SDS011;34323;52.022;5.686;2023-04-08T03:09:39;21.42;;;7.35;;
48534;SDS011;34323;52.022;5.686;2023-04-08T03:12:04;41.70;;;7.22;;
48534;SDS011;34323;52.022;5.686;2023-04-08T03:14:30;37.50;;;6.88;;
48534;SDS011;34323;52.022;5.686;2023-04-08T03:16:56;29.95;;;7.05;;
48534;SDS011;34323;52.022;5.686;2023-04-08T03:19:21;37.47;;;6.80;;
48534;SDS011;34323;52.022;5.686;2023-04-08T03:21:47;13.30;;;6.85;;
48534;SDS011;34323;52.022;5.686;2023-04-08T03:24:12;27.42;;;6.82;;
48534;SDS011;34323;52.022;5.686;2023-04-08T03:26:38;27.27;;;7.00;;
48534;SDS011;34323;52.022;5.686;2023-04-08T03:29:03;21.92;;;7.07;;
48534;SDS011;34323;52.022;5.686;2023-04-08T03:31:30;16.02;;;6.75;;
48534;SDS011;34323;52.022;5.686;2023-04-08T03:33:56;19.55;;;6.85;;
48534;SDS011;34323;52.022;5.686;2023-04-08T03:36:22;27.73;;;6.97;;
48534;SDS011;34323;52.022;5.686;2023-04-08T03:38:47;10.65;;;6.07;;
48534;SDS011;34323;52.022;5.686;2023-04-08T03:41:13;12.32;;;6.55;;
48534;SDS011;34323;52.022;5.686;2023-04-08T03:43:38;19.63;;;5.93;;
48534;SDS011;34323;52.022;5.686;2023-04-08T03:46:04;24.63;;;6.43;;
48534;SDS011;34323;52.022;5.686;2023-04-08T03:48:30;14.57;;;6.70;;
48534;SDS011;34323;52.022;5.686;2023-04-08T03:50:56;10.05;;;6.65;;
48534;SDS011;34323;52.022;5.686;2023-04-08T03:53:21;11.98;;;6.65;;
48534;SDS011;34323;52.022;5.686;2023-04-08T03:55:47;12.65;;;6.80;;
48534;SDS011;34323;52.022;5.686;2023-04-08T03:58:15;11.15;;;7.10;;
48534;SDS011;34323;52.022;5.686;2023-04-08T04:00:40;16.02;;;6.28;;
48534;SDS011;34323;52.022;5.686;2023-04-08T04:03:06;16.20;;;6.20;;
48534;SDS011;34323;52.022;5.686;2023-04-08T04:05:32;25.88;;;6.90;;
48534;SDS011;34323;52.022;5.686;2023-04-08T04:07:58;11.63;;;6.68;;
48534;SDS011;34323;52.022;5.686;2023-04-08T04:10:24;10.05;;;6.53;;
48534;SDS011;34323;52.022;5.686;2023-04-08T04:12:49;8.93;;;5.88;;
48534;SDS011;34323;52.022;5.686;2023-04-08T04:15:15;10.40;;;7.05;;
48534;SDS011;34323;52.022;5.686;2023-04-08T04:17:40;10.43;;;6.90;;
48534;SDS011;34323;52.022;5.686;2023-04-08T04:20:06;9.25;;;6.32;;
48534;SDS011;34323;52.022;5.686;2023-04-08T04:22:32;11.05;;;6.10;;
48534;SDS011;34323;52.022;5.686;2023-04-08T04:24:57;9.10;;;6.18;;
48534;SDS011;34323;52.022;5.686;2023-04-08T04:27:23;9.70;;;6.57;;
48534;SDS011;34323;52.022;5.686;2023-04-08T04:29:48;8.52;;;5.93;;
48534;SDS011;34323;52.022;5.686;2023-04-08T04:32:14;9.15;;;6.10;;
48534;SDS011;34323;52.022;5.686;2023-04-08T04:34:40;9.32;;;6.20;;
48534;SDS011;34323;52.022;5.686;2023-04-08T04:37:05;7.78;;;5.57;;
48534;SDS011;34323;52.022;5.686;2023-04-08T04:39:31;11.95;;;6.50;;
48534;SDS011;34323;52.022;5.686;2023-04-08T04:41:57;7.75;;;5.22;;
48534;SDS011;34323;52.022;5.686;2023-04-08T04:44:22;8.07;;;4.85;;
48534;SDS011;34323;52.022;5.686;2023-04-08T04:46:51;6.72;;;4.20;;
48534;SDS011;34323;52.022;5.686;2023-04-08T04:49:16;8.15;;;4.97;;
48534;SDS011;34323;52.022;5.686;2023-04-08T04:51:42;7.28;;;4.95;;
48534;SDS011;34323;52.022;5.686;2023-04-08T04:54:07;8.07;;;5.13;;
48534;SDS011;34323;52.022;5.686;2023-04-08T04:56:33;8.73;;;5.25;;
48534;SDS011;34323;52.022;5.686;2023-04-08T04:58:59;7.47;;;4.38;;
48534;SDS011;34323;52.022;5.686;2023-04-08T05:01:24;11.88;;;5.63;;
48534;SDS011;34323;52.022;5.686;2023-04-08T05:03:50;8.38;;;4.70;;
48534;SDS011;34323;52.022;5.686;2023-04-08T05:06:16;7.82;;;4.93;;
48534;SDS011;34323;52.022;5.686;2023-04-08T05:08:41;7.13;;;4.85;;
48534;SDS011;34323;52.022;5.686;2023-04-08T05:11:10;8.98;;;5.43;;
48534;SDS011;34323;52.022;5.686;2023-04-08T05:13:35;6.65;;;4.40;;
48534;SDS011;34323;52.022;5.686;2023-04-08T05:16:01;8.88;;;5.63;;
48534;SDS011;34323;52.022;5.686;2023-04-08T05:18:26;7.43;;;4.93;;
48534;SDS011;34323;52.022;5.686;2023-04-08T05:20:52;12.27;;;4.70;;
48534;SDS011;34323;52.022;5.686;2023-04-08T05:23:17;8.55;;;5.55;;
48534;SDS011;34323;52.022;5.686;2023-04-08T05:25:43;11.10;;;5.30;;
48534;SDS011;34323;52.022;5.686;2023-04-08T05:28:09;8.50;;;5.28;;
48534;SDS011;34323;52.022;5.686;2023-04-08T05:30:34;7.63;;;5.22;;
48534;SDS011;34323;52.022;5.686;2023-04-08T05:33:00;8.10;;;5.00;;
48534;SDS011;34323;52.022;5.686;2023-04-08T05:35:26;7.65;;;5.15;;
48534;SDS011;34323;52.022;5.686;2023-04-08T05:37:52;9.43;;;5.30;;
48534;SDS011;34323;52.022;5.686;2023-04-08T05:40:17;8.70;;;5.90;;
48534;SDS011;34323;52.022;5.686;2023-04-08T05:42:43;7.82;;;5.60;;
48534;SDS011;34323;52.022;5.686;2023-04-08T05:45:09;8.40;;;5.15;;
48534;SDS011;34323;52.022;5.686;2023-04-08T05:47:35;8.70;;;5.20;;
48534;SDS011;34323;52.022;5.686;2023-04-08T05:50:00;9.10;;;5.28;;
48534;SDS011;34323;52.022;5.686;2023-04-08T05:52:26;8.40;;;5.43;;
48534;SDS011;34323;52.022;5.686;2023-04-08T05:54:52;8.90;;;5.43;;
48534;SDS011;34323;52.022;5.686;2023-04-08T05:57:17;7.63;;;5.38;;
48534;SDS011;34323;52.022;5.686;2023-04-08T05:59:43;8.68;;;5.18;;
48534;SDS011;34323;52.022;5.686;2023-04-08T06:02:09;8.10;;;5.68;;
48534;SDS011;34323;52.022;5.686;2023-04-08T06:04:34;7.50;;;5.75;;
48534;SDS011;34323;52.022;5.686;2023-04-08T06:07:00;8.40;;;5.70;;
48534;SDS011;34323;52.022;5.686;2023-04-08T06:09:27;7.72;;;5.38;;
48534;SDS011;34323;52.022;5.686;2023-04-08T06:11:52;9.07;;;6.07;;
48534;SDS011;34323;52.022;5.686;2023-04-08T06:14:18;7.53;;;4.97;;
48534;SDS011;34323;52.022;5.686;2023-04-08T06:16:44;9.80;;;6.13;;
48534;SDS011;34323;52.022;5.686;2023-04-08T06:19:10;8.18;;;5.57;;
48534;SDS011;34323;52.022;5.686;2023-04-08T06:21:36;12.45;;;5.57;;
48534;SDS011;34323;52.022;5.686;2023-04-08T06:24:02;8.32;;;5.65;;
48534;SDS011;34323;52.022;5.686;2023-04-08T06:26:27;8.00;;;5.68;;
48534;SDS011;34323;52.022;5.686;2023-04-08T06:28:53;9.68;;;6.47;;
48534;SDS011;34323;52.022;5.686;2023-04-08T06:31:18;7.32;;;5.20;;
48534;SDS011;34323;52.022;5.686;2023-04-08T06:33:44;9.05;;;5.93;;
48534;SDS011;34323;52.022;5.686;2023-04-08T06:36:10;8.57;;;5.88;;
48534;SDS011;34323;52.022;5.686;2023-04-08T06:38:37;10.05;;;6.18;;
48534;SDS011;34323;52.022;5.686;2023-04-08T06:41:03;9.63;;;6.38;;
48534;SDS011;34323;52.022;5.686;2023-04-08T06:43:30;10.60;;;6.40;;
48534;SDS011;34323;52.022;5.686;2023-04-08T06:45:56;7.63;;;5.85;;
48534;SDS011;34323;52.022;5.686;2023-04-08T06:48:22;9.27;;;6.20;;
48534;SDS011;34323;52.022;5.686;2023-04-08T06:50:53;7.88;;;5.55;;
48534;SDS011;34323;52.022;5.686;2023-04-08T06:53:19;10.48;;;5.93;;
48534;SDS011;34323;52.022;5.686;2023-04-08T06:55:46;9.48;;;6.28;;
48534;SDS011;34323;52.022;5.686;2023-04-08T06:58:12;8.70;;;6.45;;
48534;SDS011;34323;52.022;5.686;2023-04-08T07:00:37;10.00;;;6.00;;
48534;SDS011;34323;52.022;5.686;2023-04-08T07:03:03;10.45;;;6.50;;
48534;SDS011;34323;52.022;5.686;2023-04-08T07:05:28;11.40;;;6.63;;
48534;SDS011;34323;52.022;5.686;2023-04-08T07:07:54;11.73;;;7.35;;
48534;SDS011;34323;52.022;5.686;2023-04-08T07:10:20;12.30;;;8.30;;
48534;SDS011;34323;52.022;5.686;2023-04-08T07:12:45;12.50;;;8.30;;
48534;SDS011;34323;52.022;5.686;2023-04-08T07:15:11;13.90;;;9.30;;
48534;SDS011;34323;52.022;5.686;2023-04-08T07:17:36;15.45;;;10.07;;
48534;SDS011;34323;52.022;5.686;2023-04-08T07:20:03;18.40;;;11.38;;
48534;SDS011;34323;52.022;5.686;2023-04-08T07:22:30;18.63;;;10.48;;
48534;SDS011;34323;52.022;5.686;2023-04-08T07:24:55;19.23;;;10.73;;
48534;SDS011;34323;52.022;5.686;2023-04-08T07:27:21;14.73;;;9.52;;
48534;SDS011;34323;52.022;5.686;2023-04-08T07:29:51;15.07;;;9.95;;
48534;SDS011;34323;52.022;5.686;2023-04-08T07:32:17;16.35;;;10.52;;
48534;SDS011;34323;52.022;5.686;2023-04-08T07:34:43;15.23;;;10.38;;
48534;SDS011;34323;52.022;5.686;2023-04-08T07:37:08;13.50;;;8.70;;
48534;SDS011;34323;52.022;5.686;2023-04-08T07:39:34;13.55;;;9.35;;
48534;SDS011;34323;52.022;5.686;2023-04-08T07:41:59;14.95;;;9.13;;
48534;SDS011;34323;52.022;5.686;2023-04-08T07:44:25;13.07;;;8.95;;
48534;SDS011;34323;52.022;5.686;2023-04-08T07:46:50;14.77;;;7.45;;
48534;SDS011;34323;52.022;5.686;2023-04-08T07:49:16;11.18;;;7.57;;
48534;SDS011;34323;52.022;5.686;2023-04-08T07:51:42;10.77;;;7.80;;
48534;SDS011;34323;52.022;5.686;2023-04-08T07:54:07;10.20;;;7.72;;
48534;SDS011;34323;52.022;5.686;2023-04-08T07:56:35;13.23;;;9.18;;
48534;SDS011;34323;52.022;5.686;2023-04-08T07:59:02;16.30;;;9.00;;
48534;SDS011;34323;52.022;5.686;2023-04-08T08:01:27;15.55;;;9.77;;
48534;SDS011;34323;52.022;5.686;2023-04-08T08:03:55;14.15;;;8.88;;
48534;SDS011;34323;52.022;5.686;2023-04-08T08:06:20;13.68;;;8.85;;
48534;SDS011;34323;52.022;5.686;2023-04-08T08:08:46;11.85;;;9.02;;
48534;SDS011;34323;52.022;5.686;2023-04-08T08:11:11;14.30;;;8.88;;
48534;SDS011;34323;52.022;5.686;2023-04-08T08:13:37;11.75;;;8.98;;
48534;SDS011;34323;52.022;5.686;2023-04-08T08:16:03;15.38;;;9.63;;
48534;SDS011;34323;52.022;5.686;2023-04-08T08:18:32;16.80;;;8.95;;
48534;SDS011;34323;52.022;5.686;2023-04-08T08:21:00;15.45;;;10.05;;
48534;SDS011;34323;52.022;5.686;2023-04-08T08:23:26;14.80;;;10.18;;
48534;SDS011;34323;52.022;5.686;2023-04-08T08:25:57;19.95;;;9.90;;
48534;SDS011;34323;52.022;5.686;2023-04-08T08:28:27;15.52;;;9.60;;
48534;SDS011;34323;52.022;5.686;2023-04-08T08:30:53;13.15;;;8.88;;
48534;SDS011;34323;52.022;5.686;2023-04-08T08:33:18;15.57;;;8.52;;
48534;SDS011;34323;52.022;5.686;2023-04-08T08:35:44;13.77;;;9.25;;
48534;SDS011;34323;52.022;5.686;2023-04-08T08:38:10;11.98;;;8.43;;
48534;SDS011;34323;52.022;5.686;2023-04-08T08:40:37;14.85;;;10.45;;
48534;SDS011;34323;52.022;5.686;2023-04-08T08:43:03;15.60;;;9.70;;
48534;SDS011;34323;52.022;5.686;2023-04-08T08:45:28;12.60;;;9.18;;
48534;SDS011;34323;52.022;5.686;2023-04-08T08:47:55;12.63;;;9.23;;
48534;SDS011;34323;52.022;5.686;2023-04-08T08:50:21;15.07;;;8.95;;
48534;SDS011;34323;52.022;5.686;2023-04-08T08:52:51;15.40;;;9.10;;
48534;SDS011;34323;52.022;5.686;2023-04-08T08:55:20;13.10;;;10.02;;
48534;SDS011;34323;52.022;5.686;2023-04-08T08:57:48;13.75;;;8.35;;
48534;SDS011;34323;52.022;5.686;2023-04-08T09:00:15;14.02;;;10.18;;
48534;SDS011;34323;52.022;5.686;2023-04-08T09:02:41;13.07;;;8.52;;
48534;SDS011;34323;52.022;5.686;2023-04-08T09:05:07;13.20;;;9.60;;
48534;SDS011;34323;52.022;5.686;2023-04-08T09:07:36;12.68;;;9.30;;
48534;SDS011;34323;52.022;5.686;2023-04-08T09:10:05;15.38;;;8.82;;
48534;SDS011;34323;52.022;5.686;2023-04-08T09:12:32;13.07;;;9.80;;
48534;SDS011;34323;52.022;5.686;2023-04-08T09:17:33;10.85;;;8.18;;
48534;SDS011;34323;52.022;5.686;2023-04-08T09:20:03;12.63;;;9.20;;
48534;SDS011;34323;52.022;5.686;2023-04-08T09:22:33;14.57;;;8.27;;
48534;SDS011;34323;52.022;5.686;2023-04-08T09:25:22;13.82;;;8.38;;
48534;SDS011;34323;52.022;5.686;2023-04-08T09:27:51;11.02;;;8.50;;
48534;SDS011;34323;52.022;5.686;2023-04-08T09:30:17;14.20;;;8.15;;
48534;SDS011;34323;52.022;5.686;2023-04-08T09:32:48;11.80;;;8.52;;
48534;SDS011;34323;52.022;5.686;2023-04-08T09:35:16;13.68;;;8.90;;
48534;SDS011;34323;52.022;5.686;2023-04-08T09:37:42;13.25;;;8.73;;
48534;SDS011;34323;52.022;5.686;2023-04-08T09:40:08;11.15;;;8.55;;
48534;SDS011;34323;52.022;5.686;2023-04-08T09:42:35;15.48;;;8.52;;
48534;SDS011;34323;52.022;5.686;2023-04-08T09:45:03;14.70;;;8.75;;
48534;SDS011;34323;52.022;5.686;2023-04-08T09:47:31;11.07;;;8.27;;
48534;SDS011;34323;52.022;5.686;2023-04-08T09:50:06;11.00;;;7.43;;
48534;SDS011;34323;52.022;5.686;2023-04-08T09:52:33;12.43;;;7.28;;
48534;SDS011;34323;52.022;5.686;2023-04-08T09:55:10;10.10;;;7.60;;
48534;SDS011;34323;52.022;5.686;2023-04-08T10:00:14;14.38;;;7.13;;
48534;SDS011;34323;52.022;5.686;2023-04-08T10:05:30;10.75;;;6.80;;
48534;SDS011;34323;52.022;5.686;2023-04-08T10:08:00;9.45;;;7.30;;
48534;SDS011;34323;52.022;5.686;2023-04-08T10:10:25;13.18;;;7.30;;
48534;SDS011;34323;52.022;5.686;2023-04-08T10:12:51;8.38;;;6.30;;
48534;SDS011;34323;52.022;5.686;2023-04-08T10:15:21;9.70;;;7.25;;
48534;SDS011;34323;52.022;5.686;2023-04-08T10:17:51;8.82;;;6.32;;
48534;SDS011;34323;52.022;5.686;2023-04-08T10:22:58;8.98;;;6.78;;
48534;SDS011;34323;52.022;5.686;2023-04-08T10:27:50;8.70;;;6.15;;
48534;SDS011;34323;52.022;5.686;2023-04-08T10:30:49;8.98;;;5.53;;
48534;SDS011;34323;52.022;5.686;2023-04-08T10:35:42;30.80;;;7.63;;
48534;SDS011;34323;52.022;5.686;2023-04-08T10:38:12;124.32;;;11.43;;
48534;SDS011;34323;52.022;5.686;2023-04-08T10:40:39;47.90;;;11.48;;
48534;SDS011;34323;52.022;5.686;2023-04-08T10:43:07;8.57;;;5.95;;
48534;SDS011;34323;52.022;5.686;2023-04-08T10:45:34;9.73;;;5.85;;
48534;SDS011;34323;52.022;5.686;2023-04-08T10:48:10;403.85;;;26.10;;
48534;SDS011;34323;52.022;5.686;2023-04-08T10:53:15;9.07;;;5.80;;
48534;SDS011;34323;52.022;5.686;2023-04-08T10:55:41;11.95;;;6.07;;
48534;SDS011;34323;52.022;5.686;2023-04-08T10:58:08;10.77;;;5.90;;
48534;SDS011;34323;52.022;5.686;2023-04-08T11:00:35;10.00;;;6.43;;
48534;SDS011;34323;52.022;5.686;2023-04-08T11:03:02;9.98;;;5.90;;
48534;SDS011;34323;52.022;5.686;2023-04-08T11:05:30;9.15;;;6.13;;
48534;SDS011;34323;52.022;5.686;2023-04-08T11:07:56;11.73;;;5.60;;
48534;SDS011;34323;52.022;5.686;2023-04-08T11:10:22;13.45;;;6.22;;
48534;SDS011;34323;52.022;5.686;2023-04-08T11:12:48;13.73;;;6.05;;
48534;SDS011;34323;52.022;5.686;2023-04-08T11:15:14;11.85;;;6.40;;
48534;SDS011;34323;52.022;5.686;2023-04-08T11:17:40;11.68;;;6.03;;
48534;SDS011;34323;52.022;5.686;2023-04-08T11:20:07;12.55;;;6.15;;
48534;SDS011;34323;52.022;5.686;2023-04-08T11:22:33;11.25;;;5.75;;
48534;SDS011;34323;52.022;5.686;2023-04-08T11:25:00;9.80;;;5.70;;
48534;SDS011;34323;52.022;5.686;2023-04-08T11:27:26;10.00;;;6.05;;
48534;SDS011;34323;52.022;5.686;2023-04-08T11:29:55;14.75;;;6.78;;
48534;SDS011;34323;52.022;5.686;2023-04-08T11:32:21;9.80;;;6.20;;
48534;SDS011;34323;52.022;5.686;2023-04-08T11:34:47;10.70;;;6.05;;
48534;SDS011;34323;52.022;5.686;2023-04-08T11:37:13;9.93;;;6.10;;
48534;SDS011;34323;52.022;5.686;2023-04-08T11:39:41;12.35;;;5.90;;
48534;SDS011;34323;52.022;5.686;2023-04-08T11:42:07;13.68;;;6.15;;
48534;SDS011;34323;52.022;5.686;2023-04-08T11:44:33;14.80;;;6.80;;
48534;SDS011;34323;52.022;5.686;2023-04-08T11:46:58;9.25;;;5.53;;
48534;SDS011;34323;52.022;5.686;2023-04-08T11:49:25;12.27;;;5.85;;
48534;SDS011;34323;52.022;5.686;2023-04-08T11:51:58;11.27;;;6.30;;
48534;SDS011;34323;52.022;5.686;2023-04-08T11:54:24;12.00;;;7.00;;
48534;SDS011;34323;52.022;5.686;2023-04-08T11:56:54;9.07;;;5.70;;
48534;SDS011;34323;52.022;5.686;2023-04-08T11:59:22;11.25;;;6.03;;
48534;SDS011;34323;52.022;5.686;2023-04-08T12:01:48;9.50;;;6.15;;
48534;SDS011;34323;52.022;5.686;2023-04-08T12:04:15;8.70;;;5.50;;
48534;SDS011;34323;52.022;5.686;2023-04-08T12:06:40;12.50;;;6.20;;
48534;SDS011;34323;52.022;5.686;2023-04-08T12:09:07;9.32;;;5.65;;
48534;SDS011;34323;52.022;5.686;2023-04-08T12:11:33;9.55;;;5.60;;
48534;SDS011;34323;52.022;5.686;2023-04-08T12:13:59;9.35;;;5.60;;
48534;SDS011;34323;52.022;5.686;2023-04-08T12:16:24;9.57;;;6.10;;
48534;SDS011;34323;52.022;5.686;2023-04-08T12:18:50;9.88;;;6.05;;
48534;SDS011;34323;52.022;5.686;2023-04-08T12:21:15;8.38;;;5.75;;
48534;SDS011;34323;52.022;5.686;2023-04-08T12:23:41;10.80;;;5.60;;
48534;SDS011;34323;52.022;5.686;2023-04-08T12:26:07;13.15;;;6.13;;
48534;SDS011;34323;52.022;5.686;2023-04-08T12:28:32;8.40;;;5.70;;
48534;SDS011;34323;52.022;5.686;2023-04-08T12:30:59;10.18;;;6.03;;
48534;SDS011;34323;52.022;5.686;2023-04-08T12:33:25;10.75;;;5.95;;
48534;SDS011;34323;52.022;5.686;2023-04-08T12:35:50;9.18;;;6.05;;
48534;SDS011;34323;52.022;5.686;2023-04-08T12:38:16;10.20;;;6.97;;
48534;SDS011;34323;52.022;5.686;2023-04-08T12:40:42;14.55;;;6.07;;
48534;SDS011;34323;52.022;5.686;2023-04-08T12:43:07;8.15;;;5.43;;
48534;SDS011;34323;52.022;5.686;2023-04-08T12:45:33;13.82;;;6.10;;
48534;SDS011;34323;52.022;5.686;2023-04-08T12:47:59;7.55;;;5.57;;
48534;SDS011;34323;52.022;5.686;2023-04-08T12:50:24;8.68;;;5.60;;
48534;SDS011;34323;52.022;5.686;2023-04-08T12:52:50;7.57;;;5.50;;
48534;SDS011;34323;52.022;5.686;2023-04-08T12:55:15;8.50;;;5.30;;
48534;SDS011;34323;52.022;5.686;2023-04-08T12:57:42;8.18;;;5.63;;
48534;SDS011;34323;52.022;5.686;2023-04-08T13:00:07;7.50;;;5.45;;
48534;SDS011;34323;52.022;5.686;2023-04-08T13:02:35;8.93;;;5.60;;
48534;SDS011;34323;52.022;5.686;2023-04-08T13:05:01;7.32;;;5.07;;
48534;SDS011;34323;52.022;5.686;2023-04-08T13:07:26;7.60;;;5.10;;
48534;SDS011;34323;52.022;5.686;2023-04-08T13:09:52;10.10;;;5.75;;
48534;SDS011;34323;52.022;5.686;2023-04-08T13:12:17;10.18;;;6.53;;
48534;SDS011;34323;52.022;5.686;2023-04-08T13:14:43;6.95;;;4.60;;
48534;SDS011;34323;52.022;5.686;2023-04-08T13:17:08;8.68;;;5.05;;
48534;SDS011;34323;52.022;5.686;2023-04-08T13:19:34;6.72;;;4.82;;
48534;SDS011;34323;52.022;5.686;2023-04-08T13:22:00;7.50;;;5.32;;
48534;SDS011;34323;52.022;5.686;2023-04-08T13:24:25;7.90;;;4.82;;
48534;SDS011;34323;52.022;5.686;2023-04-08T13:26:51;5.82;;;4.53;;
48534;SDS011;34323;52.022;5.686;2023-04-08T13:29:16;6.35;;;4.65;;
48534;SDS011;34323;52.022;5.686;2023-04-08T13:31:42;5.60;;;4.32;;
48534;SDS011;34323;52.022;5.686;2023-04-08T13:34:08;7.30;;;5.30;;
48534;SDS011;34323;52.022;5.686;2023-04-08T13:36:33;6.55;;;4.65;;
48534;SDS011;34323;52.022;5.686;2023-04-08T13:38:59;6.63;;;4.10;;
48534;SDS011;34323;52.022;5.686;2023-04-08T13:41:25;7.05;;;5.18;;
48534;SDS011;34323;52.022;5.686;2023-04-08T13:43:52;7.93;;;5.03;;
48534;SDS011;34323;52.022;5.686;2023-04-08T13:46:17;7.38;;;4.85;;
48534;SDS011;34323;52.022;5.686;2023-04-08T13:48:43;5.88;;;4.55;;
48534;SDS011;34323;52.022;5.686;2023-04-08T13:51:08;8.60;;;5.03;;
48534;SDS011;34323;52.022;5.686;2023-04-08T13:53:34;5.93;;;4.68;;
48534;SDS011;34323;52.022;5.686;2023-04-08T13:55:59;7.97;;;4.57;;
48534;SDS011;34323;52.022;5.686;2023-04-08T13:58:25;6.25;;;4.63;;
48534;SDS011;34323;52.022;5.686;2023-04-08T14:00:51;8.52;;;4.65;;
48534;SDS011;34323;52.022;5.686;2023-04-08T14:03:16;9.45;;;5.68;;
48534;SDS011;34323;52.022;5.686;2023-04-08T14:05:42;6.13;;;4.18;;
48534;SDS011;34323;52.022;5.686;2023-04-08T14:08:09;7.28;;;4.57;;
48534;SDS011;34323;52.022;5.686;2023-04-08T14:10:36;8.50;;;4.78;;
48534;SDS011;34323;52.022;5.686;2023-04-08T14:13:01;6.60;;;5.07;;
48534;SDS011;34323;52.022;5.686;2023-04-08T14:15:27;7.38;;;4.65;;
48534;SDS011;34323;52.022;5.686;2023-04-08T14:17:52;6.65;;;4.50;;
48534;SDS011;34323;52.022;5.686;2023-04-08T14:20:18;6.28;;;4.40;;
48534;SDS011;34323;52.022;5.686;2023-04-08T14:22:43;6.63;;;4.70;;
48534;SDS011;34323;52.022;5.686;2023-04-08T14:25:09;9.90;;;5.15;;
48534;SDS011;34323;52.022;5.686;2023-04-08T14:27:35;6.95;;;5.03;;
48534;SDS011;34323;52.022;5.686;2023-04-08T14:30:00;6.38;;;4.50;;
48534;SDS011;34323;52.022;5.686;2023-04-08T14:32:26;7.95;;;5.45;;
48534;SDS011;34323;52.022;5.686;2023-04-08T14:34:52;7.00;;;4.72;;
48534;SDS011;34323;52.022;5.686;2023-04-08T14:37:18;6.93;;;5.25;;
48534;SDS011;34323;52.022;5.686;2023-04-08T14:39:43;8.15;;;5.40;;
48534;SDS011;34323;52.022;5.686;2023-04-08T14:42:10;8.73;;;5.60;;
48534;SDS011;34323;52.022;5.686;2023-04-08T14:44:35;6.22;;;4.75;;
48534;SDS011;34323;52.022;5.686;2023-04-08T14:47:01;9.20;;;5.95;;
48534;SDS011;34323;52.022;5.686;2023-04-08T14:49:26;6.60;;;5.05;;
48534;SDS011;34323;52.022;5.686;2023-04-08T14:51:52;6.35;;;5.07;;
48534;SDS011;34323;52.022;5.686;2023-04-08T14:54:17;6.80;;;5.47;;
48534;SDS011;34323;52.022;5.686;2023-04-08T14:56:43;10.52;;;5.20;;
48534;SDS011;34323;52.022;5.686;2023-04-08T14:59:09;11.52;;;5.90;;
48534;SDS011;34323;52.022;5.686;2023-04-08T15:01:34;6.50;;;5.00;;